sensor_id;sensor_type;location;lat;lon;timestamp;pressure;altitude;pressure_sealevel;temperature;humidity
50852;BME280;43953;45.508;-122.806;2023-04-07T00:00:01;100067.94;;;14.24;67.76
50852;BME280;43953;45.508;-122.806;2023-04-07T00:00:34;100063.34;;;14.25;67.67
50852;BME280;43953;45.508;-122.806;2023-04-07T00:01:06;100064.16;;;14.25;67.73
50852;BME280;43953;45.508;-122.806;2023-04-07T00:01:38;100058.72;;;14.25;67.66
50852;BME280;43953;45.508;-122.806;2023-04-07T00:02:10;100066.63;;;14.27;67.79
50852;BME280;43953;45.508;-122.806;2023-04-07T00:02:42;100063.66;;;14.28;67.44
50852;BME280;43953;45.508;-122.806;2023-04-07T00:03:14;100061.78;;;14.29;67.32
50852;BME280;43953;45.508;-122.806;2023-04-07T00:03:46;100058.22;;;14.28;67.56
50852;BME280;43953;45.508;-122.806;2023-04-07T00:04:18;100060.69;;;14.30;67.43
50852;BME280;43953;45.508;-122.806;2023-04-07T00:04:49;100058.00;;;14.30;67.41
50852;BME280;43953;45.508;-122.806;2023-04-07T00:05:21;100054.22;;;14.31;67.48
50852;BME280;43953;45.508;-122.806;2023-04-07T00:05:53;100069.41;;;14.32;67.39
50852;BME280;43953;45.508;-122.806;2023-04-07T00:06:25;100059.63;;;14.31;67.39
50852;BME280;43953;45.508;-122.806;2023-04-07T00:06:57;100056.38;;;14.29;67.37
50852;BME280;43953;45.508;-122.806;2023-04-07T00:07:29;100060.13;;;14.28;67.38
50852;BME280;43953;45.508;-122.806;2023-04-07T00:08:01;100056.59;;;14.27;67.66
50852;BME280;43953;45.508;-122.806;2023-04-07T00:08:32;100057.41;;;14.28;67.51
50852;BME280;43953;45.508;-122.806;2023-04-07T00:09:04;100061.19;;;14.27;67.58
50852;BME280;43953;45.508;-122.806;2023-04-07T00:09:36;100054.16;;;14.26;67.59
50852;BME280;43953;45.508;-122.806;2023-04-07T00:10:08;100055.22;;;14.25;67.53
50852;BME280;43953;45.508;-122.806;2023-04-07T00:10:40;100053.31;;;14.25;67.55
50852;BME280;43953;45.508;-122.806;2023-04-07T00:11:12;100053.31;;;14.25;67.64
50852;BME280;43953;45.508;-122.806;2023-04-07T00:11:46;100046.03;;;14.26;67.57
50852;BME280;43953;45.508;-122.806;2023-04-07T00:12:18;100049.78;;;14.25;67.53
50852;BME280;43953;45.508;-122.806;2023-04-07T00:12:51;100056.28;;;14.24;67.68
50852;BME280;43953;45.508;-122.806;2023-04-07T00:13:23;100051.94;;;14.23;67.72
50852;BME280;43953;45.508;-122.806;2023-04-07T00:13:54;100048.41;;;14.22;67.96
50852;BME280;43953;45.508;-122.806;2023-04-07T00:14:26;100047.59;;;14.22;67.96
50852;BME280;43953;45.508;-122.806;2023-04-07T00:14:58;100044.31;;;14.20;67.83
50852;BME280;43953;45.508;-122.806;2023-04-07T00:15:30;100044.88;;;14.22;68.06
50852;BME280;43953;45.508;-122.806;2023-04-07T00:16:01;100048.66;;;14.21;67.89
50852;BME280;43953;45.508;-122.806;2023-04-07T00:16:33;100041.34;;;14.21;68.05
50852;BME280;43953;45.508;-122.806;2023-04-07T00:17:05;100045.13;;;14.20;67.96
50852;BME280;43953;45.508;-122.806;2023-04-07T00:17:36;100047.03;;;14.20;67.98
50852;BME280;43953;45.508;-122.806;2023-04-07T00:18:08;100045.97;;;14.21;68.06
50852;BME280;43953;45.508;-122.806;2023-04-07T00:18:40;100043.81;;;14.23;68.04
50852;BME280;43953;45.508;-122.806;2023-04-07T00:19:11;100034.84;;;14.22;67.96
50852;BME280;43953;45.508;-122.806;2023-04-07T00:19:43;100042.97;;;14.22;67.94
50852;BME280;43953;45.508;-122.806;2023-04-07T00:20:15;100045.97;;;14.21;67.84
50852;BME280;43953;45.508;-122.806;2023-04-07T00:20:47;100046.19;;;14.19;67.89
50852;BME280;43953;45.508;-122.806;2023-04-07T00:21:18;100042.44;;;14.20;67.98
50852;BME280;43953;45.508;-122.806;2023-04-07T00:21:50;100048.09;;;14.19;67.89
50852;BME280;43953;45.508;-122.806;2023-04-07T00:22:22;100046.44;;;14.18;67.85
50852;BME280;43953;45.508;-122.806;2023-04-07T00:22:53;100046.44;;;14.18;68.00
50852;BME280;43953;45.508;-122.806;2023-04-07T00:23:25;100044.78;;;14.17;68.07
50852;BME280;43953;45.508;-122.806;2023-04-07T00:23:57;100039.38;;;14.17;67.96
50852;BME280;43953;45.508;-122.806;2023-04-07T00:24:29;100044.78;;;14.17;68.16
50852;BME280;43953;45.508;-122.806;2023-04-07T00:25:01;100046.44;;;14.18;68.20
50852;BME280;43953;45.508;-122.806;2023-04-07T00:25:32;100041.03;;;14.18;68.14
50852;BME280;43953;45.508;-122.806;2023-04-07T00:26:04;100042.66;;;14.19;67.93
50852;BME280;43953;45.508;-122.806;2023-04-07T00:26:36;100041.03;;;14.18;68.03
50852;BME280;43953;45.508;-122.806;2023-04-07T00:27:07;100038.34;;;14.18;68.09
50852;BME280;43953;45.508;-122.806;2023-04-07T00:27:39;100039.16;;;14.18;67.93
50852;BME280;43953;45.508;-122.806;2023-04-07T00:28:11;100037.25;;;14.19;67.81
50852;BME280;43953;45.508;-122.806;2023-04-07T00:28:43;100043.75;;;14.18;67.82
50852;BME280;43953;45.508;-122.806;2023-04-07T00:29:14;100046.44;;;14.18;67.92
50852;BME280;43953;45.508;-122.806;2023-04-07T00:29:46;100041.28;;;14.16;68.24
50852;BME280;43953;45.508;-122.806;2023-04-07T00:30:18;100036.13;;;14.15;68.05
50852;BME280;43953;45.508;-122.806;2023-04-07T00:30:49;100038.25;;;14.13;68.27
50852;BME280;43953;45.508;-122.806;2023-04-07T00:31:21;100040.72;;;14.14;68.25
50852;BME280;43953;45.508;-122.806;2023-04-07T00:31:53;100038.00;;;14.14;68.14
50852;BME280;43953;45.508;-122.806;2023-04-07T00:32:24;100043.66;;;14.13;68.45
50852;BME280;43953;45.508;-122.806;2023-04-07T00:32:56;100038.25;;;14.13;68.03
50852;BME280;43953;45.508;-122.806;2023-04-07T00:33:28;100046.63;;;14.11;68.23
50852;BME280;43953;45.508;-122.806;2023-04-07T00:33:59;100053.09;;;14.10;68.19
50852;BME280;43953;45.508;-122.806;2023-04-07T00:34:31;100046.88;;;14.09;68.25
50852;BME280;43953;45.508;-122.806;2023-04-07T00:35:03;100041.47;;;14.09;68.25
50852;BME280;43953;45.508;-122.806;2023-04-07T00:35:35;100038.75;;;14.09;68.44
50852;BME280;43953;45.508;-122.806;2023-04-07T00:36:07;100041.47;;;14.09;68.51
50852;BME280;43953;45.508;-122.806;2023-04-07T00:36:39;100037.94;;;14.09;68.39
50852;BME280;43953;45.508;-122.806;2023-04-07T00:37:10;100043.34;;;14.09;68.53
50852;BME280;43953;45.508;-122.806;2023-04-07T00:37:42;100045.78;;;14.10;68.41
50852;BME280;43953;45.508;-122.806;2023-04-07T00:38:14;100043.94;;;14.11;68.08
50852;BME280;43953;45.508;-122.806;2023-04-07T00:38:45;100046.63;;;14.11;68.27
50852;BME280;43953;45.508;-122.806;2023-04-07T00:39:18;100038.50;;;14.11;68.45
50852;BME280;43953;45.508;-122.806;2023-04-07T00:39:49;100040.38;;;14.10;68.36
50852;BME280;43953;45.508;-122.806;2023-04-07T00:40:22;100030.41;;;14.11;68.19
50852;BME280;43953;45.508;-122.806;2023-04-07T00:40:58;100031.34;;;14.05;68.42
50852;BME280;43953;45.508;-122.806;2023-04-07T00:41:30;100037.84;;;14.04;68.40
50852;BME280;43953;45.508;-122.806;2023-04-07T00:42:04;100039.75;;;14.03;68.58
50852;BME280;43953;45.508;-122.806;2023-04-07T00:42:36;100035.97;;;14.04;68.37
50852;BME280;43953;45.508;-122.806;2023-04-07T00:43:08;100034.34;;;14.03;68.51
50852;BME280;43953;45.508;-122.806;2023-04-07T00:43:40;100032.69;;;14.02;68.68
50852;BME280;43953;45.508;-122.806;2023-04-07T00:44:12;100036.47;;;14.01;68.62
50852;BME280;43953;45.508;-122.806;2023-04-07T00:44:44;100043.53;;;14.02;68.65
50852;BME280;43953;45.508;-122.806;2023-04-07T00:45:16;100029.72;;;14.04;68.84
50852;BME280;43953;45.508;-122.806;2023-04-07T00:45:47;100033.03;;;14.06;68.58
50852;BME280;43953;45.508;-122.806;2023-04-07T00:46:21;100028.41;;;14.06;68.35
50852;BME280;43953;45.508;-122.806;2023-04-07T00:46:54;100036.53;;;14.06;68.50
50852;BME280;43953;45.508;-122.806;2023-04-07T00:47:26;100038.16;;;14.07;68.53
50852;BME280;43953;45.508;-122.806;2023-04-07T00:47:58;100041.97;;;14.06;68.53
50852;BME280;43953;45.508;-122.806;2023-04-07T00:48:30;100040.06;;;14.07;68.33
50852;BME280;43953;45.508;-122.806;2023-04-07T00:49:02;100034.06;;;14.05;68.54
50852;BME280;43953;45.508;-122.806;2023-04-07T00:49:36;100041.13;;;14.06;68.51
50852;BME280;43953;45.508;-122.806;2023-04-07T00:50:08;100039.25;;;14.06;68.36
50852;BME280;43953;45.508;-122.806;2023-04-07T00:50:39;100037.34;;;14.07;68.38
50852;BME280;43953;45.508;-122.806;2023-04-07T00:51:12;100037.34;;;14.07;68.33
50852;BME280;43953;45.508;-122.806;2023-04-07T00:51:45;100033.03;;;14.06;68.50
50852;BME280;43953;45.508;-122.806;2023-04-07T00:52:18;100043.59;;;14.07;68.62
50852;BME280;43953;45.508;-122.806;2023-04-07T00:52:57;100040.06;;;14.07;68.51
50852;BME280;43953;45.508;-122.806;2023-04-07T00:53:28;100033.34;;;14.09;68.38
50852;BME280;43953;45.508;-122.806;2023-04-07T00:54:00;100042.03;;;14.11;68.40
50852;BME280;43953;45.508;-122.806;2023-04-07T00:54:33;100034.72;;;14.12;68.28
50852;BME280;43953;45.508;-122.806;2023-04-07T00:55:05;100036.34;;;14.13;68.26
50852;BME280;43953;45.508;-122.806;2023-04-07T00:55:36;100042.03;;;14.11;68.32
50852;BME280;43953;45.508;-122.806;2023-04-07T00:56:08;100034.97;;;14.10;68.46
50852;BME280;43953;45.508;-122.806;2023-04-07T00:56:40;100046.06;;;14.09;68.55
50852;BME280;43953;45.508;-122.806;2023-04-07T00:57:12;100039.81;;;14.08;68.40
50852;BME280;43953;45.508;-122.806;2023-04-07T00:57:43;100038.16;;;14.07;68.41
50852;BME280;43953;45.508;-122.806;2023-04-07T00:58:16;100033.59;;;14.08;68.27
50852;BME280;43953;45.508;-122.806;2023-04-07T00:58:48;100038.16;;;14.07;68.48
50852;BME280;43953;45.508;-122.806;2023-04-07T00:59:20;100038.44;;;14.06;68.33
50852;BME280;43953;45.508;-122.806;2023-04-07T00:59:52;100037.63;;;14.05;68.34
50852;BME280;43953;45.508;-122.806;2023-04-07T01:00:26;100038.66;;;14.04;68.64
50852;BME280;43953;45.508;-122.806;2023-04-07T01:01:08;100036.22;;;14.03;68.51
50852;BME280;43953;45.508;-122.806;2023-04-07T01:01:49;100038.94;;;14.03;68.57
50852;BME280;43953;45.508;-122.806;2023-04-07T01:03:19;100040.47;;;13.99;68.92
50852;BME280;43953;45.508;-122.806;2023-04-07T01:04:08;100040.75;;;13.97;68.83
50852;BME280;43953;45.508;-122.806;2023-04-07T01:04:53;100044.25;;;13.98;68.86
50852;BME280;43953;45.508;-122.806;2023-04-07T01:05:54;100041.56;;;13.98;69.03
50852;BME280;43953;45.508;-122.806;2023-04-07T01:06:32;100042.38;;;13.98;68.80
50852;BME280;43953;45.508;-122.806;2023-04-07T01:07:10;100043.19;;;13.99;68.83
50852;BME280;43953;45.508;-122.806;2023-04-07T01:07:54;100030.72;;;13.98;68.86
50852;BME280;43953;45.508;-122.806;2023-04-07T01:09:49;100040.75;;;13.97;69.05
50852;BME280;43953;45.508;-122.806;2023-04-07T01:10:34;100038.03;;;13.97;68.75
50852;BME280;43953;45.508;-122.806;2023-04-07T01:12:21;100028.28;;;13.96;68.86
50852;BME280;43953;45.508;-122.806;2023-04-07T01:13:22;100026.63;;;13.95;68.95
50852;BME280;43953;45.508;-122.806;2023-04-07T01:13:57;100029.34;;;13.95;69.11
50852;BME280;43953;45.508;-122.806;2023-04-07T01:14:40;100025.56;;;13.96;68.94
50852;BME280;43953;45.508;-122.806;2023-04-07T01:15:13;100038.25;;;13.96;69.03
50852;BME280;43953;45.508;-122.806;2023-04-07T01:15:49;100027.44;;;13.96;69.11
50852;BME280;43953;45.508;-122.806;2023-04-07T01:16:34;100032.03;;;13.95;68.97
50852;BME280;43953;45.508;-122.806;2023-04-07T01:17:09;100036.41;;;13.96;68.91
50852;BME280;43953;45.508;-122.806;2023-04-07T01:17:44;100036.63;;;13.95;68.98
50852;BME280;43953;45.508;-122.806;2023-04-07T01:18:25;100026.63;;;13.95;69.08
50852;BME280;43953;45.508;-122.806;2023-04-07T01:19:32;100026.63;;;13.95;68.85
50852;BME280;43953;45.508;-122.806;2023-04-07T01:20:02;100038.53;;;13.94;68.81
50852;BME280;43953;45.508;-122.806;2023-04-07T01:20:39;100033.13;;;13.94;68.89
50852;BME280;43953;45.508;-122.806;2023-04-07T01:21:14;100032.03;;;13.95;68.88
50852;BME280;43953;45.508;-122.806;2023-04-07T01:21:48;100033.69;;;13.96;68.85
50852;BME280;43953;45.508;-122.806;2023-04-07T01:22:30;100036.63;;;13.95;69.05
50852;BME280;43953;45.508;-122.806;2023-04-07T01:23:05;100032.03;;;13.95;68.93
50852;BME280;43953;45.508;-122.806;2023-04-07T01:24:02;100040.16;;;13.95;69.04
50852;BME280;43953;45.508;-122.806;2023-04-07T01:26:39;100034.91;;;13.88;69.49
50852;BME280;43953;45.508;-122.806;2023-04-07T01:27:37;100033.84;;;13.89;69.39
50852;BME280;43953;45.508;-122.806;2023-04-07T01:28:29;100037.38;;;13.90;69.21
50852;BME280;43953;45.508;-122.806;2023-04-07T01:29:53;100038.75;;;13.93;69.27
50852;BME280;43953;45.508;-122.806;2023-04-07T01:30:31;100037.94;;;13.92;69.38
50852;BME280;43953;45.508;-122.806;2023-04-07T01:31:04;100036.31;;;13.91;69.31
50852;BME280;43953;45.508;-122.806;2023-04-07T01:31:39;100043.34;;;13.92;69.29
50852;BME280;43953;45.508;-122.806;2023-04-07T01:32:12;100043.34;;;13.92;69.19
50852;BME280;43953;45.508;-122.806;2023-04-07T01:32:49;100039.03;;;13.91;69.33
50852;BME280;43953;45.508;-122.806;2023-04-07T01:33:22;100039.59;;;13.93;69.41
50852;BME280;43953;45.508;-122.806;2023-04-07T01:33:58;100045.03;;;13.93;69.36
50852;BME280;43953;45.508;-122.806;2023-04-07T01:34:31;100039.34;;;13.95;69.29
50852;BME280;43953;45.508;-122.806;2023-04-07T01:35:03;100045.56;;;13.95;69.16
50852;BME280;43953;45.508;-122.806;2023-04-07T01:35:40;100041.22;;;13.94;69.19
50852;BME280;43953;45.508;-122.806;2023-04-07T01:36:14;100042.03;;;13.95;69.33
50852;BME280;43953;45.508;-122.806;2023-04-07T01:36:48;100048.28;;;13.95;69.27
50852;BME280;43953;45.508;-122.806;2023-04-07T01:37:21;100049.34;;;13.94;69.19
50852;BME280;43953;45.508;-122.806;2023-04-07T01:37:54;100047.72;;;13.93;69.35
50852;BME280;43953;45.508;-122.806;2023-04-07T01:38:27;100052.88;;;13.95;69.31
50852;BME280;43953;45.508;-122.806;2023-04-07T01:38:59;100053.94;;;13.94;69.21
50852;BME280;43953;45.508;-122.806;2023-04-07T01:39:32;100048.78;;;13.92;69.66
50852;BME280;43953;45.508;-122.806;2023-04-07T01:40:06;100045.84;;;13.94;69.42
50852;BME280;43953;45.508;-122.806;2023-04-07T01:40:38;100045.84;;;13.94;69.19
50852;BME280;43953;45.508;-122.806;2023-04-07T01:41:11;100042.03;;;13.95;69.06
50852;BME280;43953;45.508;-122.806;2023-04-07T01:41:45;100045.03;;;13.93;69.34
50852;BME280;43953;45.508;-122.806;2023-04-07T01:42:18;100046.88;;;13.93;69.07
50852;BME280;43953;45.508;-122.806;2023-04-07T01:42:51;100047.16;;;13.91;69.54
50852;BME280;43953;45.508;-122.806;2023-04-07T01:43:24;100045.47;;;13.90;69.56
50852;BME280;43953;45.508;-122.806;2023-04-07T01:44:00;100047.97;;;13.92;69.21
50852;BME280;43953;45.508;-122.806;2023-04-07T01:44:33;100048.19;;;13.90;69.36
50852;BME280;43953;45.508;-122.806;2023-04-07T01:45:06;100046.31;;;13.91;69.56
50852;BME280;43953;45.508;-122.806;2023-04-07T01:45:39;100046.31;;;13.91;69.48
50852;BME280;43953;45.508;-122.806;2023-04-07T01:46:12;100049.84;;;13.91;69.56
50852;BME280;43953;45.508;-122.806;2023-04-07T01:46:44;100047.16;;;13.91;69.26
50852;BME280;43953;45.508;-122.806;2023-04-07T01:47:17;100040.06;;;13.90;69.42
50852;BME280;43953;45.508;-122.806;2023-04-07T01:47:49;100044.66;;;13.89;69.45
50852;BME280;43953;45.508;-122.806;2023-04-07T01:48:22;100043.84;;;13.89;69.59
50852;BME280;43953;45.508;-122.806;2023-04-07T01:48:54;100043.84;;;13.89;69.31
50852;BME280;43953;45.508;-122.806;2023-04-07T01:49:27;100043.84;;;13.89;69.35
50852;BME280;43953;45.508;-122.806;2023-04-07T01:50:01;100043.84;;;13.89;69.43
50852;BME280;43953;45.508;-122.806;2023-04-07T01:50:37;100042.78;;;13.90;69.36
50852;BME280;43953;45.508;-122.806;2023-04-07T01:51:09;100041.72;;;13.91;69.29
50852;BME280;43953;45.508;-122.806;2023-04-07T01:51:45;100049.03;;;13.91;69.44
50852;BME280;43953;45.508;-122.806;2023-04-07T01:52:20;100050.91;;;13.90;69.56
50852;BME280;43953;45.508;-122.806;2023-04-07T01:52:52;100043.84;;;13.89;69.44
50852;BME280;43953;45.508;-122.806;2023-04-07T01:53:24;100049.03;;;13.91;69.70
50852;BME280;43953;45.508;-122.806;2023-04-07T01:53:57;100043.63;;;13.91;69.62
50852;BME280;43953;45.508;-122.806;2023-04-07T01:54:29;100046.31;;;13.91;69.85
50852;BME280;43953;45.508;-122.806;2023-04-07T01:55:03;100050.91;;;13.90;69.58
50852;BME280;43953;45.508;-122.806;2023-04-07T01:55:36;100035.72;;;13.89;69.53
50852;BME280;43953;45.508;-122.806;2023-04-07T01:56:08;100043.28;;;13.87;69.73
50852;BME280;43953;45.508;-122.806;2023-04-07T01:56:40;100049.25;;;13.89;69.78
50852;BME280;43953;45.508;-122.806;2023-04-07T01:57:11;100049.25;;;13.89;69.67
50852;BME280;43953;45.508;-122.806;2023-04-07T01:57:43;100045.75;;;13.88;69.53
50852;BME280;43953;45.508;-122.806;2023-04-07T01:58:15;100043.84;;;13.89;69.58
50852;BME280;43953;45.508;-122.806;2023-04-07T01:58:47;100044.66;;;13.89;69.52
50852;BME280;43953;45.508;-122.806;2023-04-07T01:59:18;100049.84;;;13.91;69.83
50852;BME280;43953;45.508;-122.806;2023-04-07T01:59:51;100045.47;;;13.90;69.60
50852;BME280;43953;45.508;-122.806;2023-04-07T02:00:23;100041.72;;;13.91;69.31
50852;BME280;43953;45.508;-122.806;2023-04-07T02:00:54;100048.78;;;13.92;69.51
50852;BME280;43953;45.508;-122.806;2023-04-07T02:01:28;100045.25;;;13.92;69.41
50852;BME280;43953;45.508;-122.806;2023-04-07T02:01:59;100043.63;;;13.91;69.56
50852;BME280;43953;45.508;-122.806;2023-04-07T02:02:35;100046.31;;;13.91;69.44
50852;BME280;43953;45.508;-122.806;2023-04-07T02:03:14;100042.78;;;13.90;69.48
50852;BME280;43953;45.508;-122.806;2023-04-07T02:04:20;100047.63;;;13.88;69.67
50852;BME280;43953;45.508;-122.806;2023-04-07T02:05:00;100043.28;;;13.87;69.56
50852;BME280;43953;45.508;-122.806;2023-04-07T02:05:37;100047.06;;;13.86;69.58
50852;BME280;43953;45.508;-122.806;2023-04-07T02:06:12;100053.53;;;13.85;69.77
50852;BME280;43953;45.508;-122.806;2023-04-07T02:06:53;100048.94;;;13.85;69.87
50852;BME280;43953;45.508;-122.806;2023-04-07T02:08:20;100048.94;;;13.85;69.66
50852;BME280;43953;45.508;-122.806;2023-04-07T02:08:57;100048.13;;;13.85;69.74
50852;BME280;43953;45.508;-122.806;2023-04-07T02:09:31;100050.03;;;13.84;69.90
50852;BME280;43953;45.508;-122.806;2023-04-07T02:10:07;100056.00;;;13.86;69.80
50852;BME280;43953;45.508;-122.806;2023-04-07T02:10:41;100057.88;;;13.86;69.63
50852;BME280;43953;45.508;-122.806;2023-04-07T02:11:16;100050.56;;;13.86;69.52
50852;BME280;43953;45.508;-122.806;2023-04-07T02:11:49;100052.22;;;13.87;69.45
50852;BME280;43953;45.508;-122.806;2023-04-07T02:12:24;100054.09;;;13.87;69.71
50852;BME280;43953;45.508;-122.806;2023-04-07T02:12:59;100059.50;;;13.87;69.46
50852;BME280;43953;45.508;-122.806;2023-04-07T02:13:33;100053.06;;;13.88;69.55
50852;BME280;43953;45.508;-122.806;2023-04-07T02:14:07;100050.34;;;13.88;69.69
50852;BME280;43953;45.508;-122.806;2023-04-07T02:14:39;100054.09;;;13.87;69.68
50852;BME280;43953;45.508;-122.806;2023-04-07T02:15:12;100053.88;;;13.88;69.72
50852;BME280;43953;45.508;-122.806;2023-04-07T02:15:45;100049.25;;;13.89;69.66
50852;BME280;43953;45.508;-122.806;2023-04-07T02:16:19;100044.94;;;13.88;69.17
50852;BME280;43953;45.508;-122.806;2023-04-07T02:16:52;100046.56;;;13.89;69.63
50852;BME280;43953;45.508;-122.806;2023-04-07T02:17:26;100045.47;;;13.90;69.70
50852;BME280;43953;45.508;-122.806;2023-04-07T02:18:00;100055.25;;;13.91;69.58
50852;BME280;43953;45.508;-122.806;2023-04-07T02:18:33;100056.06;;;13.92;69.63
50852;BME280;43953;45.508;-122.806;2023-04-07T02:19:05;100051.75;;;13.91;69.46
50852;BME280;43953;45.508;-122.806;2023-04-07T02:19:37;100042.22;;;13.88;69.44
50852;BME280;43953;45.508;-122.806;2023-04-07T02:20:11;100058.47;;;13.88;69.57
50852;BME280;43953;45.508;-122.806;2023-04-07T02:20:43;100053.06;;;13.88;69.60
50852;BME280;43953;45.508;-122.806;2023-04-07T02:21:17;100046.47;;;13.84;69.67
50852;BME280;43953;45.508;-122.806;2023-04-07T02:21:50;100045.44;;;13.85;69.54
50852;BME280;43953;45.508;-122.806;2023-04-07T02:22:22;100049.75;;;13.86;69.63
50852;BME280;43953;45.508;-122.806;2023-04-07T02:22:54;100056.81;;;13.87;69.79
50852;BME280;43953;45.508;-122.806;2023-04-07T02:23:26;100050.56;;;13.86;69.74
50852;BME280;43953;45.508;-122.806;2023-04-07T02:24:04;100050.84;;;13.85;69.68
50852;BME280;43953;45.508;-122.806;2023-04-07T02:24:39;100058.97;;;13.85;69.52
50852;BME280;43953;45.508;-122.806;2023-04-07T02:25:24;100052.72;;;13.84;69.87
50852;BME280;43953;45.508;-122.806;2023-04-07T02:25:56;100051.88;;;13.84;69.81
50852;BME280;43953;45.508;-122.806;2023-04-07T02:26:33;100049.44;;;13.82;69.84
50852;BME280;43953;45.508;-122.806;2023-04-07T02:27:05;100054.84;;;13.82;69.90
50852;BME280;43953;45.508;-122.806;2023-04-07T02:27:37;100055.66;;;13.83;69.73
50852;BME280;43953;45.508;-122.806;2023-04-07T02:28:09;100068.13;;;13.84;69.61
50852;BME280;43953;45.508;-122.806;2023-04-07T02:28:40;100060.25;;;13.82;69.58
50852;BME280;43953;45.508;-122.806;2023-04-07T02:29:12;100064.88;;;13.82;69.94
50852;BME280;43953;45.508;-122.806;2023-04-07T02:29:44;100064.88;;;13.82;69.76
50852;BME280;43953;45.508;-122.806;2023-04-07T02:30:17;100059.44;;;13.82;69.93
50852;BME280;43953;45.508;-122.806;2023-04-07T02:30:48;100055.09;;;13.81;69.74
50852;BME280;43953;45.508;-122.806;2023-04-07T02:31:20;100059.69;;;13.80;69.64
50852;BME280;43953;45.508;-122.806;2023-04-07T02:31:52;100064.88;;;13.82;69.97
50852;BME280;43953;45.508;-122.806;2023-04-07T02:32:23;100068.63;;;13.81;69.85
50852;BME280;43953;45.508;-122.806;2023-04-07T02:32:55;100060.50;;;13.81;69.68
50852;BME280;43953;45.508;-122.806;2023-04-07T02:33:27;100074.03;;;13.81;69.67
50852;BME280;43953;45.508;-122.806;2023-04-07T02:33:59;100069.69;;;13.80;69.97
50852;BME280;43953;45.508;-122.806;2023-04-07T02:34:30;100066.97;;;13.80;69.86
50852;BME280;43953;45.508;-122.806;2023-04-07T02:35:02;100069.69;;;13.80;69.87
50852;BME280;43953;45.508;-122.806;2023-04-07T02:35:34;100077.81;;;13.80;69.81
50852;BME280;43953;45.508;-122.806;2023-04-07T02:36:06;100078.63;;;13.80;69.76
50852;BME280;43953;45.508;-122.806;2023-04-07T02:36:37;100076.19;;;13.79;69.99
50852;BME280;43953;45.508;-122.806;2023-04-07T02:37:09;100071.81;;;13.78;69.81
50852;BME280;43953;45.508;-122.806;2023-04-07T02:37:42;100074.53;;;13.78;69.75
50852;BME280;43953;45.508;-122.806;2023-04-07T02:38:13;100072.88;;;13.77;70.04
50852;BME280;43953;45.508;-122.806;2023-04-07T02:38:45;100072.06;;;13.76;69.96
50852;BME280;43953;45.508;-122.806;2023-04-07T02:39:17;100071.25;;;13.76;70.00
50852;BME280;43953;45.508;-122.806;2023-04-07T02:39:49;100075.59;;;13.77;70.08
50852;BME280;43953;45.508;-122.806;2023-04-07T02:40:20;100079.94;;;13.78;70.20
50852;BME280;43953;45.508;-122.806;2023-04-07T02:40:52;100077.22;;;13.78;70.05
50852;BME280;43953;45.508;-122.806;2023-04-07T02:41:24;100075.38;;;13.78;69.87
50852;BME280;43953;45.508;-122.806;2023-04-07T02:41:56;100076.41;;;13.77;70.01
50852;BME280;43953;45.508;-122.806;2023-04-07T02:42:28;100072.88;;;13.77;70.09
50852;BME280;43953;45.508;-122.806;2023-04-07T02:42:59;100077.47;;;13.76;69.89
50852;BME280;43953;45.508;-122.806;2023-04-07T02:43:31;100077.72;;;13.75;69.92
50852;BME280;43953;45.508;-122.806;2023-04-07T02:44:03;100076.66;;;13.76;69.91
50852;BME280;43953;45.508;-122.806;2023-04-07T02:44:34;100080.19;;;13.76;69.87
50852;BME280;43953;45.508;-122.806;2023-04-07T02:45:07;100072.06;;;13.76;69.82
50852;BME280;43953;45.508;-122.806;2023-04-07T02:45:39;100072.88;;;13.77;70.06
50852;BME280;43953;45.508;-122.806;2023-04-07T02:46:11;100075.38;;;13.78;69.82
50852;BME280;43953;45.508;-122.806;2023-04-07T02:46:43;100079.94;;;13.78;70.00
50852;BME280;43953;45.508;-122.806;2023-04-07T02:47:14;100086.19;;;13.78;69.98
50852;BME280;43953;45.508;-122.806;2023-04-07T02:47:47;100082.91;;;13.76;70.24
50852;BME280;43953;45.508;-122.806;2023-04-07T02:48:18;100084.78;;;13.76;70.14
50852;BME280;43953;45.508;-122.806;2023-04-07T02:48:50;100079.13;;;13.77;70.01
50852;BME280;43953;45.508;-122.806;2023-04-07T02:49:22;100075.59;;;13.77;70.03
50852;BME280;43953;45.508;-122.806;2023-04-07T02:49:54;100073.69;;;13.77;70.05
50852;BME280;43953;45.508;-122.806;2023-04-07T02:50:26;100073.69;;;13.77;70.15
50852;BME280;43953;45.508;-122.806;2023-04-07T02:50:59;100086.19;;;13.78;69.96
50852;BME280;43953;45.508;-122.806;2023-04-07T02:51:30;100086.19;;;13.78;70.09
50852;BME280;43953;45.508;-122.806;2023-04-07T02:52:02;100093.47;;;13.78;70.03
50852;BME280;43953;45.508;-122.806;2023-04-07T02:52:34;100083.13;;;13.75;70.06
50852;BME280;43953;45.508;-122.806;2023-04-07T02:53:06;100085.84;;;13.75;70.15
50852;BME280;43953;45.508;-122.806;2023-04-07T02:53:37;100075.00;;;13.75;70.02
50852;BME280;43953;45.508;-122.806;2023-04-07T02:54:09;100079.03;;;13.72;70.26
50852;BME280;43953;45.508;-122.806;2023-04-07T02:54:41;100072.25;;;13.70;70.42
50852;BME280;43953;45.508;-122.806;2023-04-07T02:55:13;100075.50;;;13.72;70.32
50852;BME280;43953;45.508;-122.806;2023-04-07T02:55:44;100073.88;;;13.71;70.50
50852;BME280;43953;45.508;-122.806;2023-04-07T02:56:16;100079.28;;;13.71;70.51
50852;BME280;43953;45.508;-122.806;2023-04-07T02:56:48;100084.69;;;13.71;70.31